createdAt,value
2018-04-02T00:00:39.866Z,98724
2018-04-02T00:02:45.459Z,98723
2018-04-02T00:04:51.539Z,98720
2018-04-02T00:06:56.861Z,98719
2018-04-02T00:09:02.564Z,98724
2018-04-02T00:11:08.924Z,98727
2018-04-02T00:13:14.453Z,98721
2018-04-02T00:15:21.040Z,98725
2018-04-02T00:17:27.536Z,98720
2018-04-02T00:19:33.569Z,98726
2018-04-02T00:21:40.352Z,98734
2018-04-02T00:23:48.232Z,98729
2018-04-02T00:25:54.454Z,98739
2018-04-02T00:28:01.048Z,98727
2018-04-02T00:30:16.218Z,98733
2018-04-02T00:32:26.445Z,98734
2018-04-02T00:34:32.218Z,98730
2018-04-02T00:36:38.425Z,98735
2018-04-02T00:38:43.867Z,98727
2018-04-02T00:40:50.039Z,98727
2018-04-02T00:42:55.584Z,98731
2018-04-02T00:45:01.168Z,98727
2018-04-02T00:47:08.178Z,98724
2018-04-02T00:49:13.884Z,98729
2018-04-02T00:51:20.155Z,98722
2018-04-02T00:53:26.889Z,98732
2018-04-02T00:55:32.151Z,98720
2018-04-02T00:57:37.500Z,98721
2018-04-02T00:59:43.361Z,98727
2018-04-02T01:01:48.718Z,98725
2018-04-02T01:03:55.116Z,98733
2018-04-02T01:06:01.738Z,98731
2018-04-02T01:08:07.058Z,98724
2018-04-02T01:10:12.695Z,98726
2018-04-02T01:12:19.428Z,98733
2018-04-02T01:14:25.044Z,98734
2018-04-02T01:16:30.884Z,98736
2018-04-02T01:18:36.868Z,98730
2018-04-02T01:20:42.396Z,98731
2018-04-02T01:22:47.772Z,98732
2018-04-02T01:24:54.598Z,98729
2018-04-02T01:27:00.310Z,98731
2018-04-02T01:29:06.120Z,98718
2018-04-02T01:31:12.344Z,98729
2018-04-02T01:33:18.014Z,98727
2018-04-02T01:35:24.016Z,98723
2018-04-02T01:37:30.708Z,98720
2018-04-02T01:39:37.044Z,98723
2018-04-02T01:41:42.556Z,98723
2018-04-02T01:43:48.164Z,98726
2018-04-02T01:45:53.456Z,98726
2018-04-02T01:47:59.488Z,98722
2018-04-02T01:50:05.064Z,98722
2018-04-02T01:52:10.400Z,98722
2018-04-02T01:54:15.677Z,98720
2018-04-02T01:56:21.920Z,98726
2018-04-02T01:58:28.468Z,98729
2018-04-02T02:00:34.048Z,98736
2018-04-02T02:02:40.320Z,98736
2018-04-02T02:04:46.272Z,98727
2018-04-02T02:06:52.251Z,98728
2018-04-02T02:08:58.888Z,98738
2018-04-02T02:11:05.279Z,98730
2018-04-02T02:13:10.631Z,98738
2018-04-02T02:15:16.141Z,98732
2018-04-02T02:17:22.103Z,98733
2018-04-02T02:19:28.112Z,98732
2018-04-02T02:21:33.350Z,98737
2018-04-02T02:23:39.635Z,98735
2018-04-02T02:25:45.399Z,98737
2018-04-02T02:27:51.516Z,98736
2018-04-02T02:29:57.814Z,98727
2018-04-02T02:32:04.188Z,98728
2018-04-02T02:34:10.016Z,98729
2018-04-02T02:36:15.880Z,98722
2018-04-02T02:38:22.123Z,98725
2018-04-02T02:40:27.501Z,98722
2018-04-02T02:42:33.930Z,98720
2018-04-02T02:44:40.478Z,98718
2018-04-02T02:46:47.006Z,98716
2018-04-02T02:48:52.752Z,98711
2018-04-02T02:50:58.197Z,98709
2018-04-02T02:53:04.498Z,98709
2018-04-02T02:55:10.355Z,98702
2018-04-02T02:57:16.433Z,98717
2018-04-02T02:59:23.224Z,98710
2018-04-02T03:01:28.601Z,98709
2018-04-02T03:03:33.897Z,98709
2018-04-02T03:05:39.612Z,98709
2018-04-02T03:07:46.066Z,98712
2018-04-02T03:09:53.019Z,98716
2018-04-02T03:11:59.184Z,98710
2018-04-02T03:14:04.902Z,98712
2018-04-02T03:16:11.949Z,98709
2018-04-02T03:18:18.067Z,98710
2018-04-02T03:20:23.965Z,98709
2018-04-02T03:22:30.665Z,98704
2018-04-02T03:24:36.389Z,98708
2018-04-02T03:26:42.241Z,98706
2018-04-02T03:28:49.204Z,98714
2018-04-02T03:30:55.607Z,98707
2018-04-02T03:33:01.385Z,98710
2018-04-02T03:35:08.212Z,98709
2018-04-02T03:37:14.060Z,98708
2018-04-02T03:39:19.308Z,98711
2018-04-02T03:41:25.992Z,98706
2018-04-02T03:43:31.970Z,98698
2018-04-02T03:45:38.172Z,98698
2018-04-02T03:47:44.873Z,98705
2018-04-02T03:49:50.212Z,98695
2018-04-02T03:51:55.930Z,98698
2018-04-02T03:54:01.922Z,98691
2018-04-02T03:56:07.773Z,98694
2018-04-02T03:58:14.534Z,98695
2018-04-02T04:00:21.108Z,98697
2018-04-02T04:02:27.057Z,98688
2018-04-02T04:04:33.192Z,98700
2018-04-02T04:06:39.096Z,98695
2018-04-02T04:08:45.609Z,98693
2018-04-02T04:10:51.656Z,98697
2018-04-02T04:12:57.348Z,98694
2018-04-02T04:15:03.732Z,98699
2018-04-02T04:17:09.198Z,98700
2018-04-02T04:19:14.899Z,98697
2018-04-02T04:21:20.196Z,98698
2018-04-02T04:23:27.268Z,98692
2018-04-02T04:25:33.825Z,98702
2018-04-02T04:27:39.967Z,98699
2018-04-02T04:29:46.408Z,98695
2018-04-02T04:31:52.368Z,98699
2018-04-02T04:33:58.400Z,98704
2018-04-02T04:36:04.810Z,98703
2018-04-02T04:38:11.528Z,98703
2018-04-02T04:40:18.025Z,98705
2018-04-02T04:42:23.634Z,98705
2018-04-02T04:44:29.821Z,98704
2018-04-02T04:46:35.400Z,98705
2018-04-02T04:48:40.701Z,98690
2018-04-02T04:50:46.568Z,98692
2018-04-02T04:52:53.154Z,98699
2018-04-02T04:54:58.875Z,98695
2018-04-02T04:57:04.220Z,98693
2018-04-02T04:59:10.207Z,98689
2018-04-02T05:01:16.113Z,98691
2018-04-02T05:03:21.996Z,98687
2018-04-02T05:05:27.668Z,98687
2018-04-02T05:07:33.704Z,98682
2018-04-02T05:09:40.864Z,98686
2018-04-02T05:11:46.956Z,98689
2018-04-02T05:13:52.576Z,98687
2018-04-02T05:15:59.760Z,98684
2018-04-02T05:18:05.512Z,98682
2018-04-02T05:20:11.037Z,98686
2018-04-02T05:22:17.383Z,98682
2018-04-02T05:24:23.500Z,98679
2018-04-02T05:26:29.696Z,98673
2018-04-02T05:30:50.196Z,98681
2018-04-02T05:32:59.699Z,98679
2018-04-02T05:35:05.942Z,98676
2018-04-02T05:37:11.438Z,98681
2018-04-02T05:39:17.428Z,98672
2018-04-02T05:41:23.719Z,98669
2018-04-02T05:43:29.846Z,98676
2018-04-02T05:45:35.403Z,98670
2018-04-02T05:47:41.027Z,98671
2018-04-02T05:49:46.925Z,98675
2018-04-02T05:51:52.928Z,98686
2018-04-02T05:53:59.289Z,98683
2018-04-02T05:56:05.524Z,98689
2018-04-02T05:58:11.605Z,98682
2018-04-02T06:00:17.409Z,98686
2018-04-02T06:02:23.525Z,98689
2018-04-02T06:04:29.027Z,98692
2018-04-02T06:06:34.519Z,98687
2018-04-02T06:08:40.515Z,98693
2018-04-02T06:10:46.224Z,98683
2018-04-02T06:12:52.784Z,98690
2018-04-02T06:14:59.481Z,98685
2018-04-02T06:17:06.533Z,98686
2018-04-02T06:19:12.092Z,98688
2018-04-02T06:21:18.855Z,98696
2018-04-02T06:23:24.811Z,98691
2018-04-02T06:25:30.565Z,98674
2018-04-02T06:27:36.348Z,98682
2018-04-02T06:29:42.518Z,98684
2018-04-02T06:31:48.716Z,98687
2018-04-02T06:33:54.826Z,98685
2018-04-02T06:36:00.888Z,98686
2018-04-02T06:38:06.619Z,98687
2018-04-02T06:40:13.086Z,98690
2018-04-02T06:42:19.529Z,98695
2018-04-02T06:44:25.249Z,98701
2018-04-02T06:46:31.731Z,98701
2018-04-02T06:48:37.688Z,98702
2018-04-02T06:50:43.561Z,98701
2018-04-02T06:52:49.930Z,98706
2018-04-02T06:54:55.636Z,98706
2018-04-02T06:57:01.557Z,98707
2018-04-02T06:59:07.238Z,98698
2018-04-02T07:01:13.633Z,98704
2018-04-02T07:03:20.829Z,98701
2018-04-02T07:05:28.110Z,98703
2018-04-02T07:07:33.594Z,98707
2018-04-02T07:09:39.361Z,98707
2018-04-02T07:11:46.387Z,98699
2018-04-02T07:13:51.915Z,98703
2018-04-02T07:15:58.359Z,98697
2018-04-02T07:18:07.118Z,98697
2018-04-02T07:20:17.055Z,98709
2018-04-02T07:22:27.518Z,98706
2018-04-02T07:24:33.200Z,98707
2018-04-02T07:26:38.624Z,98706
2018-04-02T07:28:44.805Z,98713
2018-04-02T07:30:50.610Z,98719
2018-04-02T07:32:56.856Z,98711
2018-04-02T07:35:02.538Z,98701
2018-04-02T07:37:08.376Z,98718
2018-04-02T07:39:14.596Z,98712
2018-04-02T07:41:20.064Z,98727
2018-04-02T07:43:26.168Z,98723
2018-04-02T07:45:32.764Z,98716
2018-04-02T07:47:38.741Z,98719
2018-04-02T07:49:45.652Z,98722
2018-04-02T07:51:51.684Z,98726
2018-04-02T07:53:58.078Z,98709
2018-04-02T07:56:04.136Z,98714
2018-04-02T07:58:09.489Z,98711
2018-04-02T08:00:14.850Z,98720
2018-04-02T08:02:21.865Z,98711
2018-04-02T08:04:27.488Z,98714
2018-04-02T08:06:32.880Z,98714
2018-04-02T08:08:38.594Z,98708
2018-04-02T08:10:44.176Z,98713
2018-04-02T08:12:49.940Z,98716
2018-04-02T08:14:57.092Z,98710
2018-04-02T08:17:02.653Z,98723
2018-04-02T08:19:08.573Z,98717
2018-04-02T08:21:15.008Z,98716
2018-04-02T08:23:21.012Z,98706
2018-04-02T08:25:26.838Z,98709
2018-04-02T08:27:32.956Z,98713
2018-04-02T08:29:39.057Z,98700
2018-04-02T08:31:44.799Z,98708
2018-04-02T08:33:50.364Z,98717
2018-04-02T08:35:56.428Z,98717
2018-04-02T08:38:02.219Z,98726
2018-04-02T08:40:08.245Z,98716
2018-04-02T08:42:13.592Z,98714
2018-04-02T08:44:19.029Z,98712
2018-04-02T08:46:25.473Z,98701
2018-04-02T08:48:31.104Z,98692
2018-04-02T08:50:36.596Z,98690
2018-04-02T08:52:42.332Z,98699
2018-04-02T08:54:48.322Z,98700
2018-04-02T08:56:54.369Z,98704
2018-04-02T08:58:59.957Z,98686
2018-04-02T09:01:05.231Z,98709
2018-04-02T09:03:11.156Z,98698
2018-04-02T09:05:16.769Z,98708
2018-04-02T09:07:22.630Z,98690
2018-04-02T09:09:28.100Z,98724
2018-04-02T09:11:34.161Z,98697
2018-04-02T09:13:39.621Z,98697
2018-04-02T09:15:48.735Z,98675
2018-04-02T09:17:55.091Z,98703
2018-04-02T09:20:00.741Z,98686
2018-04-02T09:22:06.058Z,98687
2018-04-02T09:24:12.925Z,98690
2018-04-02T09:26:19.884Z,98691
2018-04-02T09:28:26.296Z,98688
2018-04-02T09:30:31.975Z,98683
2018-04-02T09:32:37.284Z,98678
2018-04-02T09:34:43.343Z,98691
2018-04-02T09:36:49.052Z,98687
2018-04-02T09:38:54.356Z,98687
2018-04-02T09:40:59.784Z,98678
2018-04-02T09:43:06.790Z,98661
2018-04-02T09:45:12.451Z,98651
2018-04-02T09:47:17.792Z,98668
2018-04-02T09:49:23.377Z,98648
2018-04-02T09:51:28.726Z,98655
2018-04-02T09:53:34.071Z,98645
2018-04-02T09:55:39.769Z,98640
2018-04-02T09:57:45.112Z,98642
2018-04-02T09:59:50.389Z,98632
2018-04-02T10:01:56.350Z,98648
2018-04-02T10:04:03.081Z,98645
2018-04-02T10:06:09.249Z,98635
2018-04-02T10:08:14.875Z,98626
2018-04-02T10:10:20.832Z,98642
2018-04-02T10:12:26.312Z,98635
2018-04-02T10:14:31.870Z,98645
2018-04-02T10:16:37.257Z,98633
2018-04-02T10:18:42.762Z,98646
2018-04-02T10:20:48.476Z,98624
2018-04-02T10:22:53.870Z,98613
2018-04-02T10:24:59.248Z,98597
2018-04-02T10:27:04.908Z,98610
2018-04-02T10:29:10.261Z,98608
2018-04-02T10:31:16.190Z,98612
2018-04-02T10:33:22.063Z,98616
2018-04-02T10:35:27.397Z,98606
2018-04-02T10:37:32.816Z,98603
2018-04-02T10:39:38.772Z,98602
2018-04-02T10:41:44.136Z,98594
2018-04-02T10:43:50.018Z,98599
2018-04-02T10:45:55.728Z,98578
2018-04-02T10:48:01.025Z,98577
2018-04-02T10:50:06.788Z,98589
2018-04-02T10:52:13.080Z,98582
2018-04-02T10:54:18.303Z,98566
2018-04-02T10:56:25.513Z,98560
2018-04-02T10:58:31.161Z,98561
2018-04-02T11:00:36.857Z,98563
2018-04-02T11:02:42.220Z,98562
2018-04-02T11:04:47.875Z,98565
2018-04-02T11:06:53.189Z,98551
2018-04-02T11:08:58.684Z,98548
2018-04-02T11:11:05.132Z,98549
2018-04-02T11:13:10.556Z,98553
2018-04-02T11:15:15.953Z,98543
2018-04-02T11:17:21.745Z,98549
2018-04-02T11:19:27.721Z,98546
2018-04-02T11:21:33.080Z,98539
2018-04-02T11:23:38.644Z,98527
2018-04-02T11:25:44.008Z,98520
2018-04-02T11:27:49.375Z,98529
2018-04-02T11:29:54.970Z,98518
2018-04-02T11:32:00.456Z,98513
2018-04-02T11:34:05.808Z,98512
2018-04-02T11:36:11.407Z,98512
2018-04-02T11:38:16.790Z,98506
2018-04-02T11:40:22.154Z,98506
2018-04-02T11:42:27.888Z,98495
2018-04-02T11:44:33.114Z,98504
2018-04-02T11:46:38.444Z,98491
2018-04-02T11:48:43.976Z,98491
2018-04-02T11:50:49.265Z,98484
2018-04-02T11:52:54.668Z,98494
2018-04-02T11:55:00.191Z,98488
2018-04-02T11:57:06.376Z,98490
2018-04-02T12:03:19.064Z,98491
2018-04-02T12:05:24.367Z,98492
2018-04-02T12:07:29.914Z,98480
2018-04-02T12:09:36.256Z,98481
2018-04-02T12:11:42.135Z,98509
2018-04-02T12:13:47.440Z,98494
2018-04-02T12:15:53.212Z,98491
2018-04-02T12:17:59.198Z,98488
2018-04-02T12:20:05.766Z,98505
2018-04-02T12:22:17.136Z,98486
2018-04-02T12:24:23.688Z,98490
2018-04-02T12:26:29.744Z,98473
2018-04-02T12:28:35.644Z,98472
2018-04-02T12:30:41.657Z,98468
2018-04-02T12:32:46.918Z,98453
2018-04-02T12:34:52.681Z,98458
2018-04-02T12:36:58.580Z,98449
2018-04-02T12:39:04.622Z,98441
2018-04-02T12:41:14.578Z,98436
2018-04-02T12:43:19.895Z,98441
2018-04-02T12:45:25.918Z,98449
2018-04-02T12:47:31.623Z,98445
2018-04-02T12:49:36.925Z,98450
2018-04-02T12:51:42.500Z,98428
2018-04-02T12:53:48.885Z,98422
2018-04-02T12:55:54.261Z,98426
2018-04-02T12:57:59.596Z,98431
2018-04-02T13:00:05.442Z,98423
2018-04-02T13:04:25.083Z,98424
2018-04-02T13:06:31.813Z,98419
2018-04-02T13:08:37.182Z,98417
2018-04-02T13:10:42.514Z,98409
2018-04-02T13:12:48.223Z,98404
2018-04-02T13:14:58.713Z,98389
2018-04-02T13:17:04.716Z,98377
2018-04-02T13:19:10.492Z,98379
2018-04-02T13:21:16.520Z,98369
2018-04-02T13:23:22.464Z,98374
2018-04-02T13:25:29.059Z,98379
2018-04-02T13:27:34.385Z,98371
2018-04-02T13:29:39.700Z,98374
2018-04-02T13:31:45.563Z,98358
2018-04-02T13:33:50.988Z,98366
2018-04-02T13:35:56.532Z,98379
2018-04-02T13:38:02.205Z,98381
2018-04-02T13:40:07.528Z,98385
2018-04-02T13:42:12.870Z,98367
2018-04-02T13:44:18.624Z,98359
2018-04-02T13:46:24.576Z,98358
2018-04-02T13:48:29.892Z,98341
2018-04-02T13:50:35.947Z,98362
2018-04-02T13:52:40.840Z,98335
2018-04-02T13:54:46.596Z,98338
2018-04-02T13:56:52.134Z,98333
2018-04-02T13:58:58.011Z,98321
2018-04-02T14:01:03.313Z,98318
2018-04-02T14:03:09.009Z,98307
2018-04-02T14:05:14.512Z,98306
2018-04-02T14:07:19.780Z,98305
2018-04-02T14:09:26.061Z,98294
2018-04-02T14:11:31.310Z,98293
2018-04-02T14:13:36.701Z,98290
2018-04-02T14:15:42.343Z,98283
2018-04-02T14:17:47.641Z,98295
2018-04-02T14:19:53.075Z,98301
2018-04-02T14:21:59.331Z,98302
2018-04-02T14:24:04.798Z,98293
2018-04-02T14:26:10.033Z,98286
2018-04-02T14:28:15.712Z,98283
2018-04-02T14:30:21.128Z,98283
2018-04-02T14:32:26.579Z,98280
2018-04-02T14:34:32.593Z,98281
2018-04-02T14:36:37.940Z,98273
2018-04-02T14:38:44.026Z,98274
2018-04-02T14:40:49.669Z,98282
2018-04-02T14:42:56.217Z,98272
2018-04-02T14:45:01.625Z,98270
2018-04-02T14:47:07.397Z,98274
2018-04-02T14:49:14.173Z,98264
2018-04-02T14:51:19.529Z,98269
2018-04-02T14:53:25.929Z,98270
2018-04-02T14:55:31.319Z,98263
2018-04-02T14:57:36.735Z,98254
2018-04-02T14:59:46.762Z,98251
2018-04-02T15:01:52.550Z,98263
2018-04-02T15:03:57.994Z,98253
2018-04-02T15:06:03.738Z,98253
2018-04-02T15:08:08.956Z,98246
2018-04-02T15:10:14.405Z,98250
2018-04-02T15:12:20.382Z,98239
2018-04-02T15:14:26.198Z,98237
2018-04-02T15:16:31.536Z,98247
2018-04-02T15:18:37.124Z,98250
2018-04-02T15:20:42.453Z,98249
2018-04-02T15:22:47.832Z,98246
2018-04-02T15:24:53.491Z,98237
2018-04-02T15:26:58.856Z,98231
2018-04-02T15:29:04.313Z,98228
2018-04-02T15:31:10.162Z,98218
2018-04-02T15:33:15.484Z,98224
2018-04-02T15:35:20.884Z,98222
2018-04-02T15:37:26.705Z,98225
2018-04-02T15:39:32.063Z,98218
2018-04-02T15:41:37.441Z,98223
2018-04-02T15:43:43.073Z,98214
2018-04-02T15:45:48.509Z,98222
2018-04-02T15:47:53.845Z,98225
2018-04-02T15:49:59.739Z,98219
2018-04-02T15:52:05.100Z,98208
2018-04-02T15:54:10.512Z,98214
2018-04-02T15:56:16.265Z,98209
2018-04-02T15:58:21.730Z,98207
2018-04-02T16:00:27.640Z,98202
2018-04-02T16:02:33.419Z,98197
2018-04-02T16:04:38.759Z,98194
2018-04-02T16:06:44.190Z,98183
2018-04-02T16:08:49.852Z,98180
2018-04-02T16:10:55.217Z,98179
2018-04-02T16:13:00.561Z,98181
2018-04-02T16:15:07.536Z,98173
2018-04-02T16:19:23.417Z,98166
2018-04-02T16:21:29.043Z,98165
2018-04-02T16:23:34.410Z,98167
2018-04-02T16:25:40.109Z,98157
2018-04-02T16:27:49.324Z,98163
2018-04-02T16:29:55.521Z,98157
2018-04-02T16:32:01.171Z,98157
2018-04-02T16:34:12.738Z,98159
2018-04-02T16:36:18.330Z,98156
2018-04-02T16:38:23.820Z,98158
2018-04-02T16:40:29.798Z,98158
2018-04-02T16:42:35.772Z,98153
2018-04-02T16:44:41.031Z,98156
2018-04-02T16:46:46.678Z,98153
2018-04-02T16:48:52.052Z,98145
2018-04-02T16:50:57.533Z,98147
2018-04-02T16:53:03.294Z,98146
2018-04-02T16:55:08.637Z,98143
2018-04-02T16:57:14.237Z,98139
2018-04-02T16:59:19.885Z,98138
2018-04-02T17:01:26.788Z,98145
2018-04-02T17:03:32.343Z,98142
2018-04-02T17:05:38.070Z,98139
2018-04-02T17:07:43.435Z,98139
2018-04-02T17:09:48.784Z,98139
2018-04-02T17:11:54.440Z,98137
2018-04-02T17:13:59.931Z,98136
2018-04-02T17:16:05.353Z,98127
2018-04-02T17:18:11.075Z,98124
2018-04-02T17:20:16.544Z,98128
2018-04-02T17:22:21.865Z,98127
2018-04-02T17:24:27.530Z,98115
2018-04-02T17:26:32.951Z,98115
2018-04-02T17:28:38.297Z,98114
2018-04-02T17:30:43.953Z,98116
2018-04-02T17:32:49.251Z,98114
2018-04-02T17:34:54.640Z,98109
2018-04-02T17:37:00.216Z,98110
2018-04-02T17:39:06.386Z,98102
2018-04-02T17:41:11.807Z,98108
2018-04-02T17:43:17.737Z,98106
2018-04-02T17:45:23.093Z,98099
2018-04-02T17:47:28.676Z,98100
2018-04-02T17:49:34.524Z,98097
2018-04-02T17:51:39.946Z,98092
2018-04-02T17:53:45.736Z,98098
2018-04-02T17:55:51.453Z,98092
2018-04-02T17:57:57.047Z,98093
2018-04-02T18:00:02.713Z,98099
2018-04-02T18:02:09.593Z,98101
2018-04-02T18:04:14.986Z,98094
2018-04-02T18:06:21.480Z,98093
2018-04-02T18:08:27.528Z,98092
2018-04-02T18:10:33.130Z,98096
2018-04-02T18:12:38.588Z,98097
2018-04-02T18:14:44.205Z,98090
2018-04-02T18:16:49.888Z,98094
2018-04-02T18:18:55.391Z,98086
2018-04-02T18:21:01.771Z,98082
2018-04-02T18:23:07.113Z,98082
2018-04-02T18:25:12.631Z,98081
2018-04-02T18:27:18.463Z,98075
2018-04-02T18:29:23.848Z,98070
2018-04-02T18:31:29.501Z,98077
2018-04-02T18:33:35.186Z,98081
2018-04-02T18:35:40.680Z,98075
2018-04-02T18:37:47.624Z,98077
2018-04-02T18:39:54.406Z,98076
2018-04-02T18:42:00.215Z,98074
2018-04-02T18:44:05.760Z,98072
2018-04-02T18:46:11.664Z,98074
2018-04-02T18:48:17.018Z,98068
2018-04-02T18:50:22.406Z,98074
2018-04-02T18:52:28.382Z,98063
2018-04-02T18:54:34.167Z,98069
2018-04-02T18:56:39.872Z,98069
2018-04-02T18:58:45.649Z,98063
2018-04-02T19:00:51.107Z,98069
2018-04-02T19:02:56.412Z,98064
2018-04-02T19:05:02.135Z,98061
2018-04-02T19:07:07.671Z,98055
2018-04-02T19:09:13.968Z,98057
2018-04-02T19:11:19.702Z,98056
2018-04-02T19:13:25.365Z,98059
2018-04-02T19:15:31.147Z,98063
2018-04-02T19:17:39.006Z,98062
2018-04-02T19:19:47.119Z,98052
2018-04-02T19:21:52.539Z,98052
2018-04-02T19:23:58.304Z,98046
2018-04-02T19:26:03.599Z,98051
2018-04-02T19:28:09.193Z,98051
2018-04-02T19:30:15.548Z,98049
2018-04-02T19:32:20.933Z,98050
2018-04-02T19:34:26.338Z,98047
2018-04-02T19:36:32.167Z,98045
2018-04-02T19:38:38.733Z,98048
2018-04-02T19:40:44.167Z,98043
2018-04-02T19:42:50.041Z,98045
2018-04-02T19:44:55.356Z,98040
2018-04-02T19:47:00.792Z,98037
2018-04-02T19:49:06.888Z,98029
2018-04-02T19:51:13.021Z,98029
2018-04-02T19:53:19.679Z,98024
2018-04-02T19:55:25.488Z,98026
2018-04-02T19:57:30.796Z,98032
2018-04-02T19:59:37.490Z,98031
2018-04-02T20:01:43.273Z,98024
2018-04-02T20:03:48.852Z,98019
2018-04-02T20:05:54.704Z,98023
2018-04-02T20:08:00.671Z,98016
2018-04-02T20:10:06.309Z,98012
2018-04-02T20:12:12.996Z,98008
2018-04-02T20:14:19.288Z,98001
2018-04-02T20:16:24.793Z,98000
2018-04-02T20:18:30.888Z,97993
2018-04-02T20:20:37.483Z,97988
2018-04-02T20:22:43.461Z,97995
2018-04-02T20:24:49.120Z,97990
2018-04-02T20:26:55.468Z,97990
2018-04-02T20:29:01.024Z,97991
2018-04-02T20:31:06.369Z,97987
2018-04-02T20:33:12.946Z,97971
2018-04-02T20:35:18.224Z,97982
2018-04-02T20:37:23.806Z,97973
2018-04-02T20:39:29.844Z,97957
2018-04-02T20:41:35.311Z,97959
2018-04-02T20:43:40.724Z,97960
2018-04-02T20:45:46.391Z,97957
2018-04-02T20:47:51.807Z,97947
2018-04-02T20:49:57.230Z,97944
2018-04-02T20:52:03.664Z,97942
2018-04-02T20:54:09.473Z,97929
2018-04-02T20:56:14.800Z,97930
2018-04-02T20:58:20.564Z,97926
2018-04-02T21:00:25.882Z,97929
2018-04-02T21:02:31.148Z,97927
2018-04-02T21:04:37.052Z,97927
2018-04-02T21:06:42.460Z,97919
2018-04-02T21:08:49.124Z,97924
2018-04-02T21:10:55.184Z,97917
2018-04-02T21:13:00.928Z,97915
2018-04-02T21:15:06.431Z,97918
2018-04-02T21:17:12.477Z,97913
2018-04-02T21:19:17.992Z,97917
2018-04-02T21:21:23.415Z,97911
2018-04-02T21:23:29.102Z,97913
2018-04-02T21:25:34.792Z,97914
2018-04-02T21:27:40.223Z,97914
2018-04-02T21:29:46.096Z,97910
2018-04-02T21:31:56.612Z,97913
2018-04-02T21:34:03.673Z,97923
2018-04-02T21:36:23.948Z,97918
2018-04-02T21:38:32.109Z,97917
2018-04-02T21:40:43.567Z,97914
2018-04-02T21:43:02.305Z,97910
2018-04-02T21:45:08.088Z,97901
2018-04-02T21:47:15.240Z,97895
2018-04-02T21:49:22.618Z,97886
2018-04-02T21:51:29.933Z,97895
2018-04-02T21:53:35.930Z,97887
2018-04-02T21:55:42.213Z,97885
2018-04-02T21:57:47.752Z,97875
2018-04-02T21:59:53.120Z,97870
2018-04-02T22:01:59.543Z,97878
2018-04-02T22:04:05.283Z,97874
2018-04-02T22:06:15.704Z,97872
2018-04-02T22:08:21.263Z,97876
2018-04-02T22:10:26.686Z,97887
2018-04-02T22:12:32.028Z,97879
2018-04-02T22:14:37.619Z,97875
2018-04-02T22:16:42.900Z,97883
2018-04-02T22:18:48.189Z,97882
2018-04-02T22:20:53.768Z,97872
2018-04-02T22:22:59.061Z,97876
2018-04-02T22:25:04.548Z,97878
2018-04-02T22:27:10.173Z,97867
2018-04-02T22:29:15.444Z,97881
2018-04-02T22:31:21.868Z,97875
2018-04-02T22:33:27.540Z,97869
2018-04-02T22:35:32.896Z,97870
2018-04-02T22:37:38.388Z,97862
2018-04-02T22:39:44.841Z,97867
2018-04-02T22:41:50.210Z,97875
2018-04-02T22:43:55.508Z,97872
2018-04-02T22:46:01.541Z,97866
2018-04-02T22:48:06.816Z,97863
2018-04-02T22:50:13.235Z,97856
2018-04-02T22:52:20.324Z,97860
2018-04-02T22:54:25.741Z,97860
2018-04-02T22:56:31.295Z,97839
2018-04-02T22:58:36.959Z,97845
2018-04-02T23:00:42.668Z,97841
2018-04-02T23:02:48.097Z,97835
2018-04-02T23:04:53.672Z,97821
2018-04-02T23:06:59.015Z,97818
2018-04-02T23:09:04.704Z,97823
2018-04-02T23:11:10.228Z,97829
2018-04-02T23:13:15.468Z,97824
2018-04-02T23:15:20.791Z,97820
2018-04-02T23:17:26.392Z,97825
2018-04-02T23:19:31.725Z,97816
2018-04-02T23:21:37.008Z,97822
2018-04-02T23:23:42.625Z,97820
2018-04-02T23:25:47.943Z,97823
2018-04-02T23:27:53.200Z,97827
2018-04-02T23:29:58.835Z,97822
2018-04-02T23:32:04.714Z,97820
2018-04-02T23:34:09.952Z,97818
2018-04-02T23:36:15.610Z,97819
2018-04-02T23:38:21.241Z,97817
2018-04-02T23:40:26.522Z,97816
2018-04-02T23:42:32.116Z,97818
2018-04-02T23:44:37.401Z,97825
2018-04-02T23:46:42.736Z,97815
2018-04-02T23:48:48.315Z,97817
2018-04-02T23:50:54.343Z,97821
2018-04-02T23:53:00.602Z,97822
2018-04-02T23:55:09.596Z,97819
2018-04-02T23:57:24.741Z,97819
2018-04-02T23:59:35.320Z,97804
